createdAt,value
2018-03-07T00:00:19.771Z,97845.69
2018-03-07T00:02:48.232Z,97848.33
2018-03-07T00:05:15.722Z,97848.86
2018-03-07T00:07:43.252Z,97846.67
2018-03-07T00:10:10.788Z,97847.88
2018-03-07T00:12:38.247Z,97846.23
2018-03-07T00:15:06.091Z,97845.52
2018-03-07T00:17:33.575Z,97843.73
2018-03-07T00:20:01.100Z,97844.17
2018-03-07T00:22:28.831Z,97843.12
2018-03-07T00:24:56.353Z,97848.03
2018-03-07T00:27:23.817Z,97842.30
2018-03-07T00:29:52.056Z,97845.50
2018-03-07T00:32:19.511Z,97844.11
2018-03-07T00:34:47.391Z,97858.20
2018-03-07T00:37:15.279Z,97856.47
2018-03-07T00:39:43.059Z,97854.06
2018-03-07T00:42:11.728Z,97846.36
2018-03-07T00:44:39.737Z,97840.59
2018-03-07T00:47:08.111Z,97844.16
2018-03-07T00:49:36.536Z,97844.34
2018-03-07T00:52:04.163Z,97842.67
2018-03-07T00:54:31.643Z,97847.84
2018-03-07T00:56:59.132Z,97848.29
2018-03-07T00:59:27.425Z,97850.20
2018-03-07T01:01:55.184Z,97850.31
2018-03-07T01:04:22.670Z,97846.06
2018-03-07T01:06:50.587Z,97847.95
2018-03-07T01:09:18.370Z,97850.73
2018-03-07T01:11:45.837Z,97852.37
2018-03-07T01:14:13.311Z,97850.86
2018-03-07T01:16:41.068Z,97849.55
2018-03-07T01:19:08.546Z,97846.99
2018-03-07T01:21:36.054Z,97850.30
2018-03-07T01:24:04.191Z,97849.06
2018-03-07T01:26:31.675Z,97857.36
2018-03-07T01:28:59.143Z,97850.63
2018-03-07T01:31:26.659Z,97854.13
2018-03-07T01:33:54.352Z,97853.31
2018-03-07T01:36:21.836Z,97854.98
2018-03-07T01:38:50.116Z,97851.66
2018-03-07T01:41:17.571Z,97843.56
2018-03-07T01:43:45.051Z,97844.91
2018-03-07T01:46:13.980Z,97841.41
2018-03-07T01:48:41.696Z,97847.48
2018-03-07T01:51:09.183Z,97847.61
2018-03-07T01:53:37.642Z,97835.58
2018-03-07T01:56:05.163Z,97848.65
2018-03-07T01:58:32.691Z,97848.27
2018-03-07T02:01:00.867Z,97847.45
2018-03-07T02:03:28.652Z,97845.45
2018-03-07T02:05:56.135Z,97843.87
2018-03-07T02:08:23.647Z,97841.30
2018-03-07T02:10:52.658Z,97839.98
2018-03-07T02:13:20.219Z,97838.77
2018-03-07T02:15:48.019Z,97846.66
2018-03-07T02:18:15.480Z,97844.50
2018-03-07T02:20:43.719Z,97848.23
2018-03-07T02:23:11.231Z,97847.02
2018-03-07T02:25:38.731Z,97848.61
2018-03-07T02:28:06.572Z,97840.56
2018-03-07T02:30:34.095Z,97838.79
2018-03-07T02:33:01.593Z,97835.72
2018-03-07T02:35:29.125Z,97839.02
2018-03-07T02:37:56.638Z,97845.84
2018-03-07T02:40:24.571Z,97838.61
2018-03-07T02:42:52.057Z,97837.91
2018-03-07T02:45:19.527Z,97827.59
2018-03-07T02:47:47.406Z,97830.49
2018-03-07T02:50:15.405Z,97824.56
2018-03-07T02:52:42.925Z,97824.77
2018-03-07T02:55:10.412Z,97825.41
2018-03-07T02:57:37.952Z,97822.30
2018-03-07T03:00:05.416Z,97821.01
2018-03-07T03:02:32.941Z,97823.21
2018-03-07T03:05:00.399Z,97824.14
2018-03-07T03:07:28.441Z,97822.91
2018-03-07T03:09:56.117Z,97815.41
2018-03-07T03:12:23.624Z,97819.42
2018-03-07T03:14:51.353Z,97820.60
2018-03-07T03:17:18.872Z,97828.17
2018-03-07T03:19:47.134Z,97830.83
2018-03-07T03:22:14.619Z,97830.98
2018-03-07T03:24:42.470Z,97829.45
2018-03-07T03:27:10.368Z,97828.23
2018-03-07T03:29:38.067Z,97832.38
2018-03-07T03:32:05.627Z,97827.58
2018-03-07T03:34:33.355Z,97833.71
2018-03-07T03:37:00.844Z,97825.83
2018-03-07T03:39:28.383Z,97833.56
2018-03-07T03:41:55.863Z,97834.21
2018-03-07T03:44:24.442Z,97833.66
2018-03-07T03:46:53.355Z,97832.25
2018-03-07T03:49:20.846Z,97835.22
2018-03-07T03:51:48.767Z,97839.20
2018-03-07T03:54:16.235Z,97833.42
2018-03-07T03:56:44.260Z,97840.18
2018-03-07T03:59:11.766Z,97835.45
2018-03-07T04:01:39.276Z,97839.29
2018-03-07T04:04:06.731Z,97832.55
2018-03-07T04:06:34.214Z,97839.89
2018-03-07T04:09:02.071Z,97845.00
2018-03-07T04:11:30.440Z,97844.20
2018-03-07T04:13:57.932Z,97854.13
2018-03-07T04:16:25.393Z,97854.47
2018-03-07T04:18:53.147Z,97848.38
2018-03-07T04:21:21.074Z,97853.28
2018-03-07T04:23:48.552Z,97854.70
2018-03-07T04:26:16.011Z,97856.25
2018-03-07T04:28:43.720Z,97864.53
2018-03-07T04:31:12.291Z,97861.88
2018-03-07T04:33:39.799Z,97855.20
2018-03-07T04:36:07.495Z,97860.67
2018-03-07T04:38:35.040Z,97859.39
2018-03-07T04:41:03.387Z,97859.48
2018-03-07T04:43:30.899Z,97862.78
2018-03-07T04:45:58.370Z,97869.50
2018-03-07T04:48:26.143Z,97862.52
2018-03-07T04:50:53.607Z,97858.61
2018-03-07T04:53:21.137Z,97855.48
2018-03-07T04:55:48.980Z,97858.28
2018-03-07T04:58:17.326Z,97857.64
2018-03-07T05:00:44.815Z,97856.09
2018-03-07T05:03:12.366Z,97849.27
2018-03-07T05:05:39.828Z,97851.67
2018-03-07T05:08:07.335Z,97853.44
2018-03-07T05:10:34.886Z,97837.23
2018-03-07T05:13:02.583Z,97840.88
2018-03-07T05:15:30.635Z,97843.25
2018-03-07T05:17:58.151Z,97851.11
2018-03-07T05:20:25.991Z,97850.30
2018-03-07T05:22:53.464Z,97837.15
2018-03-07T05:25:20.947Z,97840.41
2018-03-07T05:27:48.927Z,97838.06
2018-03-07T05:30:16.390Z,97839.64
2018-03-07T05:32:44.783Z,97837.87
2018-03-07T05:35:12.349Z,97838.59
2018-03-07T05:37:39.855Z,97835.46
2018-03-07T05:40:07.336Z,97832.06
2018-03-07T05:42:35.788Z,97834.30
2018-03-07T05:45:03.387Z,97835.05
2018-03-07T05:47:30.848Z,97842.69
2018-03-07T05:49:58.331Z,97836.05
2018-03-07T05:52:25.809Z,97846.34
2018-03-07T05:54:53.552Z,97847.10
2018-03-07T05:57:21.495Z,97844.05
2018-03-07T05:59:48.974Z,97835.07
2018-03-07T06:02:16.852Z,97832.23
2018-03-07T06:04:44.407Z,97825.19
2018-03-07T06:07:12.124Z,97826.31
2018-03-07T06:09:39.992Z,97829.36
2018-03-07T06:12:07.515Z,97824.73
2018-03-07T06:14:35.038Z,97830.67
2018-03-07T06:17:02.787Z,97852.42
2018-03-07T06:19:31.205Z,97872.20
2018-03-07T06:21:59.579Z,97872.14
2018-03-07T06:24:33.539Z,97866.53
2018-03-07T06:27:01.105Z,97874.42
2018-03-07T06:29:28.891Z,97888.00
2018-03-07T06:31:56.655Z,97887.05
2018-03-07T06:34:24.567Z,97879.25
2018-03-07T06:36:52.028Z,97890.53
2018-03-07T06:39:20.190Z,97891.70
2018-03-07T06:41:47.656Z,97900.27
2018-03-07T06:44:15.161Z,97900.66
2018-03-07T06:46:43.569Z,97902.20
2018-03-07T06:49:11.056Z,97907.39
2018-03-07T06:51:38.535Z,97904.48
2018-03-07T06:54:06.093Z,97905.28
2018-03-07T06:56:34.164Z,97901.17
2018-03-07T06:59:01.661Z,97908.29
2018-03-07T07:01:29.199Z,97909.68
2018-03-07T07:03:56.733Z,97909.47
2018-03-07T07:06:25.527Z,97908.39
2018-03-07T07:08:54.158Z,97907.92
2018-03-07T07:11:21.910Z,97908.34
2018-03-07T07:13:50.337Z,97915.39
2018-03-07T07:16:17.832Z,97911.66
2018-03-07T07:18:45.768Z,97915.63
2018-03-07T07:21:14.095Z,97919.54
2018-03-07T07:23:41.543Z,97926.52
2018-03-07T07:26:09.124Z,97927.64
2018-03-07T07:28:36.588Z,97928.27
2018-03-07T07:31:04.070Z,97931.39
2018-03-07T07:33:31.544Z,97929.56
2018-03-07T07:35:59.110Z,97936.95
2018-03-07T07:38:26.644Z,97937.09
2018-03-07T07:40:54.863Z,97938.03
2018-03-07T07:43:22.553Z,97935.48
2018-03-07T07:45:50.093Z,97937.38
2018-03-07T07:48:17.627Z,97944.20
2018-03-07T07:50:45.124Z,97944.88
2018-03-07T07:53:12.591Z,97947.81
2018-03-07T07:55:40.066Z,97946.34
2018-03-07T07:58:08.029Z,97953.18
2018-03-07T08:00:36.733Z,97955.34
2018-03-07T08:03:04.471Z,97954.48
2018-03-07T08:05:32.251Z,97962.13
2018-03-07T08:07:59.796Z,97959.58
2018-03-07T08:10:27.271Z,97960.87
2018-03-07T08:12:55.210Z,97970.14
2018-03-07T08:15:22.916Z,97967.45
2018-03-07T08:17:50.851Z,97967.98
2018-03-07T08:20:18.583Z,97973.02
2018-03-07T08:22:46.129Z,97967.63
2018-03-07T08:25:13.636Z,97962.20
2018-03-07T08:27:41.388Z,97973.64
2018-03-07T08:30:08.881Z,97969.44
2018-03-07T08:32:37.486Z,97973.41
2018-03-07T08:35:04.956Z,97976.34
2018-03-07T08:37:32.459Z,97973.77
2018-03-07T08:39:59.922Z,97978.91
2018-03-07T08:42:28.349Z,97973.84
2018-03-07T08:44:56.169Z,97981.48
2018-03-07T08:47:23.655Z,97980.41
2018-03-07T08:49:52.072Z,97981.95
2018-03-07T08:52:19.551Z,97979.69
2018-03-07T08:54:47.054Z,97987.38
2018-03-07T08:57:14.899Z,97984.30
2018-03-07T08:59:42.627Z,97988.03
2018-03-07T09:02:11.287Z,97990.42
2018-03-07T09:04:38.748Z,97990.20
2018-03-07T09:07:06.527Z,97987.80
2018-03-07T09:09:34.027Z,97982.02
2018-03-07T09:12:01.556Z,97989.61
2018-03-07T09:14:29.179Z,97986.04
2018-03-07T09:16:57.045Z,97992.25
2018-03-07T09:19:24.512Z,97992.18
2018-03-07T09:21:52.083Z,97994.73
2018-03-07T09:24:20.215Z,97995.38
2018-03-07T09:26:47.761Z,98001.08
2018-03-07T09:29:15.302Z,98001.05
2018-03-07T09:31:42.789Z,97993.79
2018-03-07T09:34:10.783Z,97996.63
2018-03-07T09:36:38.791Z,98007.12
2018-03-07T09:39:06.254Z,98003.90
2018-03-07T09:41:33.739Z,98001.06
2018-03-07T09:44:01.956Z,98002.22
2018-03-07T09:46:30.616Z,98003.72
2018-03-07T09:48:58.332Z,98011.86
2018-03-07T09:51:26.784Z,98008.09
2018-03-07T09:53:55.188Z,98009.23
2018-03-07T09:56:22.759Z,98005.18
2018-03-07T09:58:50.187Z,98004.91
2018-03-07T10:01:17.644Z,98008.22
2018-03-07T10:03:45.512Z,98009.03
2018-03-07T10:06:13.393Z,98009.74
2018-03-07T10:08:41.112Z,98014.77
2018-03-07T10:11:08.620Z,98015.42
2018-03-07T10:13:36.216Z,98007.78
2018-03-07T10:16:03.688Z,98009.47
2018-03-07T10:18:31.218Z,98008.73
2018-03-07T10:20:59.154Z,98011.29
2018-03-07T10:23:26.624Z,98011.96
2018-03-07T10:25:54.111Z,98010.18
2018-03-07T10:28:21.644Z,98019.27
2018-03-07T10:30:49.110Z,98021.66
2018-03-07T10:33:22.268Z,98019.14
2018-03-07T10:35:50.246Z,98019.87
2018-03-07T10:38:18.254Z,98017.47
2018-03-07T10:40:47.035Z,98021.94
2018-03-07T10:43:14.515Z,98032.86
2018-03-07T10:45:42.261Z,98028.52
2018-03-07T10:48:09.741Z,98037.88
2018-03-07T10:50:37.440Z,98042.63
2018-03-07T10:53:04.971Z,98047.63
2018-03-07T10:55:32.440Z,98050.13
2018-03-07T10:57:59.919Z,98048.92
2018-03-07T11:00:32.913Z,98046.59
2018-03-07T11:03:00.758Z,98049.87
2018-03-07T11:05:28.926Z,98050.41
2018-03-07T11:07:56.700Z,98051.72
2018-03-07T11:10:24.197Z,98052.27
2018-03-07T11:12:52.583Z,98049.63
2018-03-07T11:15:20.384Z,98050.83
2018-03-07T11:17:47.864Z,98050.49
2018-03-07T11:20:15.551Z,98055.16
2018-03-07T11:22:43.093Z,98054.81
2018-03-07T11:25:10.575Z,98058.86
2018-03-07T11:27:38.119Z,98058.98
2018-03-07T11:30:05.809Z,98058.53
2018-03-07T11:32:33.643Z,98062.16
2018-03-07T11:35:01.315Z,98064.30
2018-03-07T11:37:28.792Z,98061.86
2018-03-07T11:39:56.305Z,98066.47
2018-03-07T11:42:24.659Z,98066.79
2018-03-07T11:44:52.697Z,98072.27
2018-03-07T11:47:20.158Z,98068.10
2018-03-07T11:49:47.630Z,98067.73
2018-03-07T11:52:15.088Z,98067.70
2018-03-07T11:54:42.616Z,98071.56
2018-03-07T11:57:10.075Z,98063.97
2018-03-07T11:59:37.549Z,98073.13
2018-03-07T12:02:05.023Z,98078.18
2018-03-07T12:04:32.552Z,98074.38
2018-03-07T12:07:00.047Z,98074.48
2018-03-07T12:09:27.571Z,98069.78
2018-03-07T12:11:55.384Z,98075.86
2018-03-07T12:14:23.639Z,98075.00
2018-03-07T12:16:52.950Z,98071.48
2018-03-07T12:19:20.662Z,98072.63
2018-03-07T12:21:49.083Z,98073.13
2018-03-07T12:24:16.554Z,98070.13
2018-03-07T12:26:44.009Z,98067.67
2018-03-07T12:29:11.577Z,98068.19
2018-03-07T12:31:39.743Z,98068.56
2018-03-07T12:34:07.475Z,98062.55
2018-03-07T12:36:35.238Z,98062.36
2018-03-07T12:39:02.715Z,98058.98
2018-03-07T12:41:30.204Z,98061.06
2018-03-07T12:43:57.765Z,98058.55
2018-03-07T12:46:25.258Z,98065.84
2018-03-07T12:48:52.775Z,98060.09
2018-03-07T12:51:20.468Z,98069.47
2018-03-07T12:53:47.983Z,98065.41
2018-03-07T12:56:15.471Z,98060.95
2018-03-07T12:58:43.817Z,98056.66
2018-03-07T13:01:12.395Z,98063.36
2018-03-07T13:03:40.804Z,98058.05
2018-03-07T13:06:08.255Z,98058.16
2018-03-07T13:08:36.101Z,98053.32
2018-03-07T13:11:03.840Z,98057.78
2018-03-07T13:13:31.328Z,98055.85
2018-03-07T13:15:58.881Z,98062.64
2018-03-07T13:18:26.352Z,98059.80
2018-03-07T13:20:54.072Z,98063.92
2018-03-07T13:23:21.992Z,98063.22
2018-03-07T13:25:49.475Z,98064.47
2018-03-07T13:28:17.621Z,98072.04
2018-03-07T13:30:45.538Z,98072.06
2018-03-07T13:33:12.996Z,98061.98
2018-03-07T13:35:40.564Z,98075.14
2018-03-07T13:38:09.736Z,98068.19
2018-03-07T13:40:37.316Z,98065.19
2018-03-07T13:43:04.836Z,98068.34
2018-03-07T13:45:32.347Z,98070.02
2018-03-07T13:47:59.796Z,98070.19
2018-03-07T13:50:27.286Z,98069.80
2018-03-07T13:52:55.242Z,98068.88
2018-03-07T13:55:23.194Z,98079.27
2018-03-07T13:57:51.782Z,98077.83
2018-03-07T14:00:19.492Z,98078.45
2018-03-07T14:02:47.603Z,98074.34
2018-03-07T14:05:15.079Z,98080.61
2018-03-07T14:07:42.587Z,98074.38
2018-03-07T14:10:10.442Z,98078.22
2018-03-07T14:12:37.912Z,98078.53
2018-03-07T14:15:05.611Z,98073.13
2018-03-07T14:17:33.109Z,98073.70
2018-03-07T14:20:00.638Z,98078.23
2018-03-07T14:22:28.133Z,98075.08
2018-03-07T14:24:57.234Z,98073.87
2018-03-07T14:29:57.792Z,98084.44
2018-03-07T14:32:25.720Z,98084.23
2018-03-07T14:34:53.188Z,98087.30
2018-03-07T14:37:21.472Z,98082.02
2018-03-07T14:39:49.044Z,98082.88
2018-03-07T14:42:16.627Z,98087.48
2018-03-07T14:44:44.500Z,98086.61
2018-03-07T14:47:12.489Z,98084.30
2018-03-07T14:49:40.184Z,98081.70
2018-03-07T14:52:07.655Z,98084.51
2018-03-07T14:54:35.544Z,98081.64
2018-03-07T14:57:03.621Z,98086.13
2018-03-07T14:59:31.107Z,98092.55
2018-03-07T15:01:58.987Z,98099.47
2018-03-07T15:04:26.526Z,98100.52
2018-03-07T15:06:54.203Z,98101.21
2018-03-07T15:09:22.028Z,98104.71
2018-03-07T15:11:49.532Z,98104.03
2018-03-07T15:14:17.231Z,98106.61
2018-03-07T15:16:45.417Z,98106.09
2018-03-07T15:19:13.243Z,98111.37
2018-03-07T15:21:40.739Z,98108.72
2018-03-07T15:24:08.220Z,98109.80
2018-03-07T15:26:35.731Z,98108.88
2018-03-07T15:29:03.236Z,98107.78
2018-03-07T15:31:30.724Z,98104.38
2018-03-07T15:33:58.271Z,98106.98
2018-03-07T15:36:25.975Z,98103.17
2018-03-07T15:38:53.497Z,98101.56
2018-03-07T15:41:21.017Z,98110.96
2018-03-07T15:43:48.464Z,98106.91
2018-03-07T15:46:15.951Z,98112.31
2018-03-07T15:48:44.475Z,98115.63
2018-03-07T15:51:12.105Z,98115.34
2018-03-07T15:53:39.568Z,98118.03
2018-03-07T15:56:07.516Z,98121.41
2018-03-07T15:58:34.969Z,98127.13
2018-03-07T16:01:02.472Z,98124.72
2018-03-07T16:03:29.966Z,98127.78
2018-03-07T16:05:58.401Z,98123.44
2018-03-07T16:08:26.232Z,98132.16
2018-03-07T16:10:53.859Z,98131.80
2018-03-07T16:13:21.336Z,98134.03
2018-03-07T16:15:48.860Z,98130.82
2018-03-07T16:18:16.428Z,98129.77
2018-03-07T16:20:43.878Z,98135.92
2018-03-07T16:23:11.379Z,98137.03
2018-03-07T16:25:38.923Z,98141.30
2018-03-07T16:28:06.423Z,98143.19
2018-03-07T16:30:35.668Z,98144.52
2018-03-07T16:33:03.370Z,98147.95
2018-03-07T16:35:30.901Z,98151.31
2018-03-07T16:37:58.679Z,98152.93
2018-03-07T16:40:26.172Z,98166.91
2018-03-07T16:42:53.707Z,98166.76
2018-03-07T16:45:22.177Z,98169.41
2018-03-07T16:47:49.707Z,98167.98
2018-03-07T16:50:17.590Z,98168.17
2018-03-07T16:52:46.047Z,98178.47
2018-03-07T16:55:13.570Z,98172.47
2018-03-07T16:57:41.147Z,98191.78
2018-03-07T17:00:08.601Z,98180.10
2018-03-07T17:02:36.088Z,98194.00
2018-03-07T17:05:03.535Z,98201.98
2018-03-07T17:07:31.499Z,98195.25
2018-03-07T17:09:59.187Z,98203.91
2018-03-07T17:12:27.035Z,98203.66
2018-03-07T17:14:54.856Z,98209.07
2018-03-07T17:17:22.379Z,98211.23
2018-03-07T17:19:49.830Z,98216.92
2018-03-07T17:22:17.359Z,98221.78
2018-03-07T17:24:45.840Z,98218.16
2018-03-07T17:27:13.544Z,98231.25
2018-03-07T17:29:41.035Z,98234.52
2018-03-07T17:32:08.511Z,98241.68
2018-03-07T17:34:35.998Z,98237.77
2018-03-07T17:37:03.483Z,98245.46
2018-03-07T17:39:30.956Z,98244.27
2018-03-07T17:41:58.415Z,98251.27
2018-03-07T17:44:25.956Z,98247.92
2018-03-07T17:46:53.465Z,98254.53
2018-03-07T17:49:21.175Z,98254.95
2018-03-07T17:51:48.622Z,98263.84
2018-03-07T17:54:16.127Z,98264.41
2018-03-07T17:56:43.596Z,98267.43
2018-03-07T17:59:11.074Z,98279.28
2018-03-07T18:01:39.144Z,98277.16
2018-03-07T18:04:07.410Z,98270.83
2018-03-07T18:06:34.944Z,98280.38
2018-03-07T18:09:02.417Z,98284.42
2018-03-07T18:11:30.757Z,98289.15
2018-03-07T18:13:58.233Z,98291.97
2018-03-07T18:16:25.692Z,98287.93
2018-03-07T18:18:53.207Z,98294.28
2018-03-07T18:21:21.253Z,98294.44
2018-03-07T18:23:49.112Z,98298.85
2018-03-07T18:26:16.580Z,98297.91
2018-03-07T18:28:44.671Z,98313.39
2018-03-07T18:31:12.231Z,98313.95
2018-03-07T18:33:39.712Z,98309.78
2018-03-07T18:36:07.613Z,98313.80
2018-03-07T18:38:36.080Z,98312.31
2018-03-07T18:41:03.903Z,98308.70
2018-03-07T18:43:31.420Z,98310.98
2018-03-07T18:45:58.926Z,98310.31
2018-03-07T18:48:26.636Z,98313.38
2018-03-07T18:50:54.399Z,98319.05
2018-03-07T18:53:21.899Z,98322.00
2018-03-07T18:55:49.413Z,98313.95
2018-03-07T18:58:18.640Z,98318.91
2018-03-07T19:00:46.091Z,98318.90
2018-03-07T19:03:13.920Z,98319.03
2018-03-07T19:05:43.068Z,98315.53
2018-03-07T19:08:10.576Z,98324.28
2018-03-07T19:10:39.640Z,98324.41
2018-03-07T19:13:07.452Z,98326.98
2018-03-07T19:15:35.899Z,98324.03
2018-03-07T19:18:04.255Z,98325.25
2018-03-07T19:20:32.533Z,98326.45
2018-03-07T19:23:00.371Z,98320.41
2018-03-07T19:25:28.361Z,98324.70
2018-03-07T19:27:56.953Z,98331.70
2018-03-07T19:30:24.471Z,98335.08
2018-03-07T19:32:51.948Z,98338.14
2018-03-07T19:35:19.452Z,98340.44
2018-03-07T19:37:46.911Z,98342.88
2018-03-07T19:40:15.446Z,98350.54
2018-03-07T19:42:42.959Z,98350.39
2018-03-07T19:45:10.715Z,98355.37
2018-03-07T19:47:38.405Z,98358.33
2018-03-07T19:50:05.972Z,98354.98
2018-03-07T19:52:33.449Z,98357.41
2018-03-07T19:55:01.214Z,98359.95
2018-03-07T19:57:29.028Z,98367.08
2018-03-07T19:59:56.529Z,98368.70
2018-03-07T20:02:24.020Z,98379.87
2018-03-07T20:04:52.311Z,98376.64
2018-03-07T20:07:20.156Z,98380.16
2018-03-07T20:09:48.454Z,98379.34
2018-03-07T20:12:16.426Z,98368.14
2018-03-07T20:14:43.958Z,98377.45
2018-03-07T20:17:11.460Z,98381.21
2018-03-07T20:19:39.767Z,98380.41
2018-03-07T20:22:07.243Z,98382.70
2018-03-07T20:24:35.982Z,98394.68
2018-03-07T20:27:03.758Z,98393.87
2018-03-07T20:29:31.315Z,98402.73
2018-03-07T20:31:59.593Z,98401.00
2018-03-07T20:34:27.066Z,98410.95
2018-03-07T20:36:54.523Z,98419.44
2018-03-07T20:39:22.057Z,98425.35
2018-03-07T20:41:51.864Z,98423.76
2018-03-07T20:44:19.663Z,98431.69
2018-03-07T20:46:47.175Z,98435.84
2018-03-07T20:49:17.033Z,98437.06
2018-03-07T20:51:47.091Z,98446.63
2018-03-07T20:54:19.328Z,98442.44
2018-03-07T20:56:48.110Z,98451.06
2018-03-07T20:59:15.563Z,98463.02
2018-03-07T21:01:44.962Z,98469.21
2018-03-07T21:04:13.227Z,98472.69
2018-03-07T21:06:40.990Z,98470.94
2018-03-07T21:09:08.705Z,98475.91
2018-03-07T21:11:36.385Z,98483.94
2018-03-07T21:14:03.893Z,98486.81
2018-03-07T21:16:31.753Z,98497.95
2018-03-07T21:18:59.398Z,98508.41
2018-03-07T21:21:27.062Z,98508.13
2018-03-07T21:23:54.902Z,98507.73
2018-03-07T21:26:22.660Z,98512.86
2018-03-07T21:28:51.524Z,98511.51
2018-03-07T21:31:19.326Z,98515.68
2018-03-07T21:33:47.046Z,98503.75
2018-03-07T21:36:15.127Z,98505.05
2018-03-07T21:38:43.843Z,98511.41
2018-03-07T21:41:13.630Z,98511.80
2018-03-07T21:43:43.473Z,98517.98
2018-03-07T21:46:11.362Z,98515.28
2018-03-07T21:48:39.104Z,98512.52
2018-03-07T21:51:07.346Z,98538.93
2018-03-07T21:53:35.513Z,98539.39
2018-03-07T21:56:03.386Z,98542.09
2018-03-07T21:58:31.448Z,98545.44
2018-03-07T22:01:01.225Z,98551.36
2018-03-07T22:03:28.866Z,98560.36
2018-03-07T22:05:57.420Z,98560.77
2018-03-07T22:08:26.838Z,98561.95
2018-03-07T22:10:56.004Z,98571.36
2018-03-07T22:13:24.465Z,98562.23
2018-03-07T22:15:54.133Z,98566.81
2018-03-07T22:18:22.592Z,98565.02
2018-03-07T22:20:50.271Z,98560.98
2018-03-07T22:23:17.739Z,98573.08
2018-03-07T22:25:45.509Z,98572.27
2018-03-07T22:28:13.127Z,98572.15
2018-03-07T22:30:41.299Z,98569.73
2018-03-07T22:33:09.709Z,98576.75
2018-03-07T22:35:37.255Z,98575.11
2018-03-07T22:38:04.797Z,98572.95
2018-03-07T22:40:32.255Z,98576.58
2018-03-07T22:43:00.553Z,98575.11
2018-03-07T22:45:28.675Z,98580.06
2018-03-07T22:47:56.578Z,98581.00
2018-03-07T22:50:24.565Z,98588.10
2018-03-07T22:52:52.091Z,98593.17
2018-03-07T22:55:20.742Z,98595.98
2018-03-07T22:57:48.234Z,98605.58
2018-03-07T23:00:25.086Z,98593.64
2018-03-07T23:02:52.869Z,98614.64
2018-03-07T23:05:21.375Z,98612.08
2018-03-07T23:07:49.088Z,98611.08
2018-03-07T23:10:16.564Z,98618.32
2018-03-07T23:12:44.886Z,98618.38
2018-03-07T23:15:12.571Z,98626.06
2018-03-07T23:17:40.078Z,98626.45
2018-03-07T23:20:07.558Z,98623.66
2018-03-07T23:22:35.097Z,98627.39
2018-03-07T23:25:02.611Z,98623.52
2018-03-07T23:27:30.318Z,98633.88
2018-03-07T23:29:57.872Z,98638.48
2018-03-07T23:32:25.403Z,98631.50
2018-03-07T23:34:52.858Z,98637.33
2018-03-07T23:37:20.701Z,98649.11
2018-03-07T23:39:48.952Z,98654.88
2018-03-07T23:42:16.464Z,98641.68
2018-03-07T23:44:43.967Z,98652.33
2018-03-07T23:47:11.467Z,98665.77
2018-03-07T23:49:39.497Z,98667.19
2018-03-07T23:52:07.206Z,98659.30
2018-03-07T23:54:35.285Z,98670.46
2018-03-07T23:57:03.371Z,98683.91
2018-03-07T23:59:30.872Z,98684.84
